SHT21K EGJB-EGLL
Flight info
| Callsign | SHT21K |
|---|---|
| Flight time | 0h 35m |
| Altitude | 19000 |
| Route | ORIST L982 ROXOG |
| Aircraft | A319/M-SDE3FGHIRWY/LB1 |
Departure
| Time | 2026-04-22 15:28 |
|---|---|
| Airport | Guernsey Airport (EGJB) |
Arrival
| Time | 2026-04-22 16:04 |
|---|---|
| Airport | London Heathrow Airport (EGLL) |
| Time | Latitude | Longitude | Altitude | Speed | Heading |
|---|---|---|---|---|---|
| 2026-04-22 14:44 | 49.43252 | -2.59685 | 326 ft | 0 kts | 178° |
| 2026-04-22 14:46 | 49.43250 | -2.59621 | 324 ft | 0 kts | 178° |
| 2026-04-22 15:16 | 49.43260 | -2.59621 | 323 ft | 4 kts | 178° |
| 2026-04-22 15:16 | 49.43287 | -2.59623 | 325 ft | 4 kts | 178° |
| 2026-04-22 15:16 | 49.43314 | -2.59624 | 326 ft | 4 kts | 177° |
| 2026-04-22 15:16 | 49.43340 | -2.59624 | 324 ft | 4 kts | 197° |
| 2026-04-22 15:17 | 49.43360 | -2.59605 | 323 ft | 4 kts | 247° |
| 2026-04-22 15:17 | 49.43363 | -2.59584 | 325 ft | 1 kts | 266° |
| 2026-04-22 15:17 | 49.43363 | -2.59581 | 325 ft | 0 kts | 266° |
| 2026-04-22 15:24 | 49.43363 | -2.59591 | 324 ft | 4 kts | 266° |
| 2026-04-22 15:24 | 49.43360 | -2.59673 | 326 ft | 11 kts | 267° |
| 2026-04-22 15:24 | 49.43345 | -2.59816 | 324 ft | 16 kts | 265° |
| 2026-04-22 15:25 | 49.43340 | -2.60008 | 322 ft | 20 kts | 268° |
| 2026-04-22 15:25 | 49.43334 | -2.60239 | 319 ft | 24 kts | 268° |
| 2026-04-22 15:25 | 49.43327 | -2.60498 | 315 ft | 22 kts | 267° |
| 2026-04-22 15:25 | 49.43337 | -2.60693 | 312 ft | 16 kts | 280° |
| 2026-04-22 15:26 | 49.43359 | -2.60878 | 310 ft | 19 kts | 281° |
| 2026-04-22 15:26 | 49.43361 | -2.61077 | 307 ft | 10 kts | 269° |
| 2026-04-22 15:26 | 49.43360 | -2.61154 | 306 ft | 8 kts | 268° |
| 2026-04-22 15:26 | 49.43369 | -2.61259 | 305 ft | 12 kts | 293° |
| 2026-04-22 15:27 | 49.43434 | -2.61352 | 304 ft | 13 kts | 356° |
| 2026-04-22 15:27 | 49.43467 | -2.61295 | 305 ft | 6 kts | 82° |
| 2026-04-22 15:27 | 49.43469 | -2.61208 | 309 ft | 20 kts | 88° |
| 2026-04-22 15:27 | 49.43487 | -2.60575 | 314 ft | 98 kts | 87° |
| 2026-04-22 15:28 | 49.43517 | -2.59264 | 651 ft | 126 kts | 86° |
| 2026-04-22 15:28 | 49.43554 | -2.57942 | 1473 ft | 126 kts | 89° |
| 2026-04-22 15:28 | 49.43591 | -2.56500 | 1946 ft | 145 kts | 90° |
| 2026-04-22 15:28 | 49.43635 | -2.54825 | 2361 ft | 168 kts | 90° |
| 2026-04-22 15:29 | 49.43683 | -2.52912 | 2903 ft | 187 kts | 91° |
| 2026-04-22 15:29 | 49.43767 | -2.50896 | 3800 ft | 194 kts | 84° |
| 2026-04-22 15:29 | 49.44474 | -2.49036 | 4571 ft | 220 kts | 44° |
| 2026-04-22 15:30 | 49.47516 | -2.47409 | 6339 ft | 240 kts | 18° |
| 2026-04-22 15:30 | 49.49190 | -2.46821 | 7007 ft | 258 kts | 17° |
| 2026-04-22 15:30 | 49.51022 | -2.46185 | 7561 ft | 279 kts | 17° |
| 2026-04-22 15:30 | 49.52941 | -2.45514 | 8444 ft | 286 kts | 17° |
| 2026-04-22 15:31 | 49.54898 | -2.44814 | 9388 ft | 291 kts | 17° |
| 2026-04-22 15:31 | 49.56880 | -2.44083 | 10322 ft | 295 kts | 16° |
| 2026-04-22 15:31 | 49.58886 | -2.43328 | 11241 ft | 298 kts | 16° |
| 2026-04-22 15:31 | 49.60890 | -2.42564 | 12065 ft | 303 kts | 15° |
| 2026-04-22 15:32 | 49.62954 | -2.41772 | 12899 ft | 308 kts | 15° |
| 2026-04-22 15:32 | 49.65043 | -2.40968 | 13754 ft | 312 kts | 14° |
| 2026-04-22 15:32 | 49.67171 | -2.40148 | 14500 ft | 317 kts | 14° |
| 2026-04-22 15:32 | 49.69249 | -2.38983 | 15226 ft | 321 kts | 27° |
| 2026-04-22 15:33 | 49.71138 | -2.37090 | 15778 ft | 332 kts | 41° |
| 2026-04-22 15:33 | 49.72792 | -2.34451 | 15953 ft | 353 kts | 51° |
| 2026-04-22 15:33 | 49.74404 | -2.31497 | 16374 ft | 365 kts | 51° |
| 2026-04-22 15:33 | 49.76050 | -2.28467 | 17002 ft | 370 kts | 51° |
| 2026-04-22 15:34 | 49.77692 | -2.25446 | 17680 ft | 374 kts | 51° |
| 2026-04-22 15:34 | 49.79377 | -2.22360 | 18355 ft | 378 kts | 50° |
| 2026-04-22 15:34 | 49.81088 | -2.19240 | 18930 ft | 382 kts | 50° |
| 2026-04-22 15:34 | 49.82813 | -2.16104 | 19153 ft | 383 kts | 50° |
| 2026-04-22 15:35 | 49.83960 | -2.14018 | 19199 ft | 385 kts | 50° |
| 2026-04-22 15:35 | 49.86287 | -2.09770 | 19222 ft | 387 kts | 50° |
| 2026-04-22 15:35 | 49.88024 | -2.06582 | 19229 ft | 387 kts | 50° |
| 2026-04-22 15:35 | 49.89761 | -2.03391 | 19229 ft | 387 kts | 50° |
| 2026-04-22 15:36 | 49.91498 | -2.00203 | 19221 ft | 387 kts | 50° |
| 2026-04-22 15:36 | 49.93236 | -1.97005 | 19234 ft | 387 kts | 50° |
| 2026-04-22 15:36 | 49.94946 | -1.93851 | 19238 ft | 387 kts | 50° |
| 2026-04-22 15:36 | 49.96679 | -1.90653 | 19239 ft | 387 kts | 50° |
| 2026-04-22 15:37 | 49.98420 | -1.87464 | 19231 ft | 387 kts | 48° |
| 2026-04-22 15:37 | 50.00387 | -1.84622 | 19239 ft | 387 kts | 37° |
| 2026-04-22 15:37 | 50.02654 | -1.82386 | 19242 ft | 387 kts | 27° |
| 2026-04-22 15:37 | 50.05057 | -1.80499 | 19256 ft | 386 kts | 26° |
| 2026-04-22 15:38 | 50.07454 | -1.78616 | 19270 ft | 385 kts | 26° |
| 2026-04-22 15:38 | 50.12162 | -1.74785 | 19269 ft | 384 kts | 32° |
| 2026-04-22 15:38 | 50.14282 | -1.72262 | 19273 ft | 384 kts | 40° |
| 2026-04-22 15:39 | 50.16326 | -1.69587 | 19275 ft | 383 kts | 39° |
| 2026-04-22 15:39 | 50.18372 | -1.66925 | 19276 ft | 383 kts | 39° |
| 2026-04-22 15:39 | 50.20421 | -1.64268 | 19276 ft | 383 kts | 39° |
| 2026-04-22 15:39 | 50.22468 | -1.61614 | 19273 ft | 382 kts | 39° |
| 2026-04-22 15:40 | 50.24516 | -1.58962 | 19280 ft | 382 kts | 38° |
| 2026-04-22 15:40 | 50.26708 | -1.56647 | 19261 ft | 381 kts | 28° |
| 2026-04-22 15:40 | 50.29141 | -1.55003 | 19273 ft | 380 kts | 18° |
| 2026-04-22 15:40 | 50.31636 | -1.53803 | 19271 ft | 380 kts | 17° |
| 2026-04-22 15:41 | 50.34164 | -1.52577 | 19276 ft | 380 kts | 17° |
| 2026-04-22 15:41 | 50.36684 | -1.51339 | 19260 ft | 380 kts | 17° |
| 2026-04-22 15:41 | 50.39206 | -1.50094 | 19270 ft | 380 kts | 17° |
| 2026-04-22 15:41 | 50.41732 | -1.48850 | 19276 ft | 380 kts | 17° |
| 2026-04-22 15:42 | 50.44254 | -1.47611 | 19283 ft | 380 kts | 17° |
| 2026-04-22 15:42 | 50.46776 | -1.46365 | 19283 ft | 380 kts | 17° |
| 2026-04-22 15:42 | 50.49292 | -1.45120 | 19282 ft | 379 kts | 17° |
| 2026-04-22 15:42 | 50.51808 | -1.43874 | 19284 ft | 379 kts | 17° |
| 2026-04-22 15:43 | 50.54247 | -1.42451 | 19283 ft | 379 kts | 25° |
| 2026-04-22 15:43 | 50.56575 | -1.40494 | 19280 ft | 380 kts | 28° |
| 2026-04-22 15:43 | 50.58890 | -1.38506 | 19287 ft | 379 kts | 28° |
| 2026-04-22 15:43 | 50.61190 | -1.36535 | 19267 ft | 375 kts | 27° |
| 2026-04-22 15:44 | 50.63479 | -1.34572 | 19275 ft | 374 kts | 28° |
| 2026-04-22 15:44 | 50.65761 | -1.32610 | 19264 ft | 374 kts | 28° |
| 2026-04-22 15:44 | 50.68046 | -1.30647 | 19271 ft | 375 kts | 28° |
| 2026-04-22 15:44 | 50.70330 | -1.28682 | 19277 ft | 373 kts | 28° |
| 2026-04-22 15:45 | 50.72612 | -1.26714 | 19280 ft | 374 kts | 28° |
| 2026-04-22 15:45 | 50.74868 | -1.24764 | 19275 ft | 374 kts | 28° |
| 2026-04-22 15:45 | 50.77128 | -1.22766 | 19271 ft | 371 kts | 30° |
| 2026-04-22 15:45 | 50.79329 | -1.20644 | 18700 ft | 372 kts | 32° |
| 2026-04-22 15:46 | 50.81505 | -1.18398 | 17947 ft | 375 kts | 33° |
| 2026-04-22 15:46 | 50.83659 | -1.16097 | 17363 ft | 371 kts | 34° |
| 2026-04-22 15:46 | 50.85774 | -1.13831 | 16859 ft | 364 kts | 34° |
| 2026-04-22 15:46 | 50.87866 | -1.11616 | 16346 ft | 359 kts | 35° |
| 2026-04-22 15:47 | 50.89935 | -1.09452 | 15859 ft | 354 kts | 35° |
| 2026-04-22 15:47 | 50.91983 | -1.07325 | 15367 ft | 350 kts | 35° |
| 2026-04-22 15:47 | 50.94003 | -1.05230 | 14880 ft | 346 kts | 37° |
| 2026-04-22 15:47 | 50.95979 | -1.03183 | 14403 ft | 342 kts | 36° |
| 2026-04-22 15:48 | 50.97966 | -1.01126 | 13904 ft | 340 kts | 36° |
| 2026-04-22 15:48 | 50.99919 | -0.99063 | 13420 ft | 335 kts | 40° |
| 2026-04-22 15:48 | 51.01605 | -0.96569 | 13181 ft | 329 kts | 52° |
| 2026-04-22 15:48 | 51.03123 | -0.93877 | 12705 ft | 326 kts | 52° |
| 2026-04-22 15:49 | 51.04628 | -0.91210 | 12234 ft | 322 kts | 52° |
| 2026-04-22 15:49 | 51.06115 | -0.88564 | 11741 ft | 320 kts | 53° |
| 2026-04-22 15:49 | 51.07588 | -0.85934 | 11267 ft | 317 kts | 52° |
| 2026-04-22 15:49 | 51.09048 | -0.83324 | 10775 ft | 315 kts | 52° |
| 2026-04-22 15:50 | 51.10478 | -0.80765 | 10320 ft | 313 kts | 52° |
| 2026-04-22 15:50 | 51.11904 | -0.78222 | 10147 ft | 301 kts | 52° |
| 2026-04-22 15:50 | 51.13271 | -0.75786 | 10014 ft | 289 kts | 53° |
| 2026-04-22 15:50 | 51.14584 | -0.73438 | 9807 ft | 281 kts | 52° |
| 2026-04-22 15:51 | 51.15872 | -0.71128 | 9474 ft | 278 kts | 53° |
| 2026-04-22 15:51 | 51.17151 | -0.68833 | 9115 ft | 276 kts | 53° |
| 2026-04-22 15:51 | 51.18420 | -0.66556 | 8779 ft | 273 kts | 53° |
| 2026-04-22 15:51 | 51.19678 | -0.64296 | 8421 ft | 272 kts | 53° |
| 2026-04-22 15:52 | 51.20928 | -0.62045 | 8079 ft | 270 kts | 53° |
| 2026-04-22 15:52 | 51.22150 | -0.59842 | 7741 ft | 268 kts | 53° |
| 2026-04-22 15:52 | 51.23383 | -0.57617 | 7404 ft | 267 kts | 53° |
| 2026-04-22 15:52 | 51.24610 | -0.55402 | 7055 ft | 265 kts | 53° |
| 2026-04-22 15:53 | 51.25830 | -0.53202 | 6722 ft | 263 kts | 53° |
| 2026-04-22 15:53 | 51.27057 | -0.51097 | 6587 ft | 257 kts | 46° |
| 2026-04-22 15:53 | 51.28666 | -0.49889 | 6457 ft | 261 kts | 14° |
| 2026-04-22 15:53 | 51.30458 | -0.50222 | 6323 ft | 264 kts | 340° |
| 2026-04-22 15:54 | 51.31871 | -0.52033 | 6119 ft | 263 kts | 304° |
| 2026-04-22 15:54 | 51.32579 | -0.54661 | 5829 ft | 262 kts | 287° |
| 2026-04-22 15:54 | 51.33139 | -0.57426 | 5525 ft | 261 kts | 287° |
| 2026-04-22 15:54 | 51.33694 | -0.60194 | 5289 ft | 262 kts | 287° |
| 2026-04-22 15:55 | 51.34251 | -0.62965 | 5058 ft | 262 kts | 287° |
| 2026-04-22 15:55 | 51.34811 | -0.65736 | 4823 ft | 261 kts | 287° |
| 2026-04-22 15:55 | 51.35359 | -0.68499 | 4591 ft | 261 kts | 287° |
| 2026-04-22 15:55 | 51.36033 | -0.71360 | 4354 ft | 278 kts | 295° |
| 2026-04-22 15:56 | 51.36834 | -0.74148 | 4121 ft | 273 kts | 296° |
| 2026-04-22 15:56 | 51.37632 | -0.76874 | 3890 ft | 268 kts | 296° |
| 2026-04-22 15:56 | 51.38414 | -0.79536 | 3647 ft | 259 kts | 296° |
| 2026-04-22 15:56 | 51.39158 | -0.82078 | 3435 ft | 253 kts | 296° |
| 2026-04-22 15:57 | 51.40082 | -0.84407 | 3187 ft | 244 kts | 321° |
| 2026-04-22 15:57 | 51.41497 | -0.85626 | 3043 ft | 224 kts | 354° |
| 2026-04-22 15:57 | 51.42984 | -0.85683 | 2999 ft | 209 kts | 19° |
| 2026-04-22 15:57 | 51.44302 | -0.84822 | 2998 ft | 203 kts | 34° |
| 2026-04-22 15:58 | 51.45537 | -0.83747 | 3001 ft | 201 kts | 36° |
| 2026-04-22 15:58 | 51.46686 | -0.82527 | 3000 ft | 195 kts | 50° |
| 2026-04-22 15:58 | 51.47401 | -0.80764 | 2995 ft | 181 kts | 73° |
| 2026-04-22 15:58 | 51.47586 | -0.78830 | 3004 ft | 174 kts | 91° |
| 2026-04-22 15:59 | 51.47597 | -0.76904 | 3005 ft | 172 kts | 89° |
| 2026-04-22 15:59 | 51.47609 | -0.75017 | 3011 ft | 172 kts | 89° |
| 2026-04-22 15:59 | 51.47622 | -0.73098 | 2997 ft | 173 kts | 89° |
| 2026-04-22 15:59 | 51.47634 | -0.71166 | 2856 ft | 173 kts | 89° |
| 2026-04-22 16:00 | 51.47642 | -0.69884 | 2724 ft | 174 kts | 89° |
| 2026-04-22 16:00 | 51.47657 | -0.67314 | 2422 ft | 170 kts | 89° |
| 2026-04-22 16:00 | 51.47667 | -0.65463 | 2196 ft | 161 kts | 89° |
| 2026-04-22 16:00 | 51.47676 | -0.63739 | 2024 ft | 149 kts | 88° |
| 2026-04-22 16:01 | 51.47685 | -0.62117 | 1799 ft | 142 kts | 88° |
| 2026-04-22 16:01 | 51.47693 | -0.60578 | 1612 ft | 138 kts | 89° |
| 2026-04-22 16:01 | 51.47701 | -0.59031 | 1421 ft | 138 kts | 88° |
| 2026-04-22 16:01 | 51.47708 | -0.57487 | 1225 ft | 139 kts | 88° |
| 2026-04-22 16:02 | 51.47715 | -0.56007 | 1039 ft | 125 kts | 89° |
| 2026-04-22 16:02 | 51.47722 | -0.54670 | 878 ft | 115 kts | 89° |
| 2026-04-22 16:02 | 51.47727 | -0.53408 | 727 ft | 113 kts | 89° |
| 2026-04-22 16:02 | 51.47733 | -0.52138 | 579 ft | 112 kts | 89° |
| 2026-04-22 16:03 | 51.47738 | -0.50907 | 413 ft | 113 kts | 88° |
| 2026-04-22 16:03 | 51.47749 | -0.49642 | 288 ft | 112 kts | 89° |
| 2026-04-22 16:03 | 51.47750 | -0.48398 | 138 ft | 111 kts | 90° |
| 2026-04-22 16:03 | 51.47756 | -0.47209 | 87 ft | 98 kts | 89° |
| 2026-04-22 16:04 | 51.47757 | -0.46591 | 90 ft | 12 kts | 90° |
| 2026-04-22 16:04 | 51.47757 | -0.46468 | 89 ft | 15 kts | 89° |
| 2026-04-22 16:04 | 51.47756 | -0.46265 | 89 ft | 21 kts | 97° |
| 2026-04-22 16:04 | 51.47706 | -0.46152 | 87 ft | 12 kts | 143° |
| 2026-04-22 16:05 | 51.47668 | -0.46107 | 90 ft | 11 kts | 144° |
| 2026-04-22 16:05 | 51.47606 | -0.46094 | 87 ft | 8 kts | 224° |
| 2026-04-22 16:05 | 51.47592 | -0.46190 | 87 ft | 10 kts | 270° |
| 2026-04-22 16:05 | 51.47593 | -0.46325 | 87 ft | 14 kts | 270° |
| 2026-04-22 16:06 | 51.47593 | -0.46496 | 87 ft | 17 kts | 270° |
| 2026-04-22 16:06 | 51.47592 | -0.46697 | 87 ft | 19 kts | 270° |
| 2026-04-22 16:06 | 51.47583 | -0.46899 | 87 ft | 18 kts | 266° |
| 2026-04-22 16:06 | 51.47582 | -0.47079 | 88 ft | 13 kts | 270° |
| 2026-04-22 16:07 | 51.47582 | -0.47245 | 87 ft | 16 kts | 269° |
| 2026-04-22 16:07 | 51.47581 | -0.47437 | 87 ft | 19 kts | 270° |
| 2026-04-22 16:07 | 51.47580 | -0.47659 | 88 ft | 21 kts | 270° |
| 2026-04-22 16:07 | 51.47579 | -0.47899 | 87 ft | 22 kts | 269° |
| 2026-04-22 16:08 | 51.47578 | -0.48150 | 87 ft | 23 kts | 270° |
| 2026-04-22 16:08 | 51.47577 | -0.48393 | 87 ft | 15 kts | 270° |
| 2026-04-22 16:08 | 51.47523 | -0.48478 | 87 ft | 11 kts | 184° |
| 2026-04-22 16:08 | 51.47473 | -0.48478 | 87 ft | 6 kts | 178° |
| 2026-04-22 16:09 | 51.47439 | -0.48477 | 88 ft | 0 kts | 180° |
| 2026-04-22 16:12 | 51.47433 | -0.48477 | 90 ft | 4 kts | 181° |
| 2026-04-22 16:12 | 51.47354 | -0.48477 | 87 ft | 20 kts | 179° |
| 2026-04-22 16:12 | 51.47196 | -0.48476 | 87 ft | 25 kts | 180° |
| 2026-04-22 16:13 | 51.47013 | -0.48475 | 87 ft | 29 kts | 179° |
| 2026-04-22 16:13 | 51.46890 | -0.48478 | 87 ft | 6 kts | 193° |
| 2026-04-22 16:13 | 51.46878 | -0.48529 | 87 ft | 6 kts | 262° |
| 2026-04-22 16:13 | 51.46877 | -0.48624 | 87 ft | 11 kts | 270° |
| 2026-04-22 16:14 | 51.46876 | -0.48753 | 87 ft | 10 kts | 270° |
| 2026-04-22 16:14 | 51.46874 | -0.48798 | 89 ft | 2 kts | 251° |
| 2026-04-22 16:14 | 51.46866 | -0.48816 | 90 ft | 1 kts | 219° |
| 2026-04-22 16:14 | 51.46855 | -0.48822 | 88 ft | 2 kts | 194° |
| 2026-04-22 16:15 | 51.46836 | -0.48823 | 87 ft | 3 kts | 177° |
| 2026-04-22 16:15 | 51.46825 | -0.48822 | 89 ft | 1 kts | 179° |
| 2026-04-22 16:15 | 51.46823 | -0.48822 | 89 ft | 0 kts | 179° |
| 2026-04-22 16:15 | 51.46820 | -0.48822 | 89 ft | 0 kts | 179° |